createdAt,value
2023-01-21T00:03:21.628Z,14.70
2023-01-21T00:11:07.725Z,11.00
2023-01-21T00:14:36.010Z,12.40
2023-01-21T00:17:05.823Z,13.50
2023-01-21T00:19:34.510Z,12.50
2023-01-21T00:23:06.793Z,11.50
2023-01-21T00:26:38.042Z,14.20
2023-01-21T00:30:06.543Z,13.10
2023-01-21T00:33:40.344Z,11.90
2023-01-21T00:37:08.848Z,12.40
2023-01-21T00:39:42.961Z,13.80
2023-01-21T00:42:12.553Z,13.00
2023-01-21T00:44:41.554Z,13.30
2023-01-21T00:47:09.932Z,14.20
2023-01-21T00:49:38.690Z,13.00
2023-01-21T00:52:07.508Z,12.70
2023-01-21T00:54:36.295Z,12.80
2023-01-21T00:57:07.234Z,13.40
2023-01-21T00:59:36.097Z,14.30
2023-01-21T01:02:04.605Z,13.30
2023-01-21T01:04:33.501Z,11.90
2023-01-21T01:07:02.079Z,11.80
2023-01-21T01:09:31.194Z,13.30
2023-01-21T01:11:59.963Z,13.40
2023-01-21T01:14:28.652Z,12.30
2023-01-21T01:16:57.310Z,11.50
2023-01-21T01:19:25.818Z,13.80
2023-01-21T01:21:54.403Z,12.90
2023-01-21T01:24:23.298Z,11.40
2023-01-21T01:26:52.062Z,11.10
2023-01-21T01:29:20.982Z,12.70
2023-01-21T01:31:49.606Z,11.00
2023-01-21T01:34:18.756Z,12.20
2023-01-21T01:36:49.307Z,10.90
2023-01-21T01:39:17.881Z,11.90
2023-01-21T01:41:46.481Z,14.00
2023-01-21T01:44:49.757Z,11.30
2023-01-21T01:47:20.488Z,11.70
2023-01-21T01:49:49.477Z,11.90
2023-01-21T01:52:20.316Z,11.50
2023-01-21T01:54:53.886Z,14.10
2023-01-21T01:57:26.201Z,10.90
2023-01-21T01:59:55.393Z,13.80
2023-01-21T02:02:24.422Z,12.50
2023-01-21T02:04:57.471Z,12.30
2023-01-21T02:07:29.276Z,13.60
2023-01-21T02:09:57.785Z,11.90
2023-01-21T02:12:26.915Z,10.80
2023-01-21T02:14:55.518Z,13.50
2023-01-21T02:17:48.970Z,11.50
2023-01-21T02:20:48.675Z,13.00
2023-01-21T02:23:24.630Z,12.60
2023-01-21T02:26:08.779Z,14.40
2023-01-21T02:28:46.786Z,13.50
2023-01-21T02:31:37.392Z,12.50
2023-01-21T02:34:11.604Z,13.90
2023-01-21T02:37:12.445Z,12.80
2023-01-21T02:40:21.249Z,13.10
2023-01-21T02:43:08.191Z,13.20
2023-01-21T02:45:49.959Z,15.60
2023-01-21T02:48:27.067Z,13.80
2023-01-21T02:50:55.974Z,12.30
2023-01-21T02:53:29.861Z,13.40
2023-01-21T02:56:06.931Z,14.10
2023-01-21T02:58:40.447Z,11.60
2023-01-21T03:01:24.388Z,13.20
2023-01-21T03:04:30.449Z,10.70
2023-01-21T03:07:06.509Z,12.40
2023-01-21T03:09:36.740Z,13.10
2023-01-21T03:12:11.458Z,11.50
2023-01-21T03:15:11.479Z,9.40
2023-01-21T03:17:52.148Z,11.80
2023-01-21T03:20:22.732Z,12.30
2023-01-21T03:22:57.098Z,10.50
2023-01-21T03:25:29.747Z,13.60
2023-01-21T03:28:00.998Z,11.90
2023-01-21T03:30:31.899Z,14.50
2023-01-21T03:33:02.265Z,13.20
2023-01-21T03:35:37.883Z,16.40
2023-01-21T03:38:16.971Z,13.30
2023-01-21T03:40:55.078Z,12.90
2023-01-21T03:43:23.873Z,12.50
2023-01-21T03:46:11.802Z,12.00
2023-01-21T03:48:51.040Z,12.10
2023-01-21T03:51:24.461Z,12.80
2023-01-21T03:53:57.717Z,11.20
2023-01-21T03:56:27.617Z,12.90
2023-01-21T03:58:56.276Z,12.00
2023-01-21T04:01:24.818Z,14.20
2023-01-21T04:03:53.804Z,11.10
2023-01-21T04:06:23.726Z,11.10
2023-01-21T04:08:52.303Z,11.40
2023-01-21T04:11:20.892Z,13.30
2023-01-21T04:13:49.881Z,12.60
2023-01-21T04:16:18.484Z,11.60
2023-01-21T04:18:48.001Z,14.20
2023-01-21T04:21:17.149Z,12.60
2023-01-21T04:23:46.065Z,13.70
2023-01-21T04:26:14.747Z,14.40
2023-01-21T04:28:43.847Z,12.60
2023-01-21T04:31:12.635Z,12.00
2023-01-21T04:33:41.109Z,13.20
2023-01-21T04:36:09.905Z,12.60
2023-01-21T04:38:38.639Z,13.60
2023-01-21T04:41:07.279Z,11.70
2023-01-21T04:43:35.757Z,14.10
2023-01-21T04:46:05.428Z,12.80
2023-01-21T04:48:34.363Z,14.40
2023-01-21T04:51:03.289Z,11.70
2023-01-21T04:53:32.144Z,13.50
2023-01-21T04:56:00.543Z,13.50
2023-01-21T04:58:29.408Z,12.40
2023-01-21T05:00:58.227Z,13.50
2023-01-21T05:03:28.019Z,13.60
2023-01-21T05:05:59.362Z,14.30
2023-01-21T05:08:28.166Z,13.20
2023-01-21T05:10:56.821Z,19.10
2023-01-21T05:13:25.837Z,15.90
2023-01-21T05:15:55.185Z,14.30
2023-01-21T05:18:23.778Z,14.20
2023-01-21T05:20:52.408Z,13.90
2023-01-21T05:23:21.296Z,14.60
2023-01-21T05:25:50.088Z,13.90
2023-01-21T05:28:18.773Z,19.10
2023-01-21T05:30:47.586Z,13.90
2023-01-21T05:33:16.290Z,16.00
2023-01-21T05:35:44.761Z,14.90
2023-01-21T05:38:13.311Z,11.80
2023-01-21T05:40:41.999Z,13.60
2023-01-21T05:43:10.584Z,15.10
2023-01-21T05:45:39.176Z,12.30
2023-01-21T05:48:07.958Z,14.20
2023-01-21T05:50:38.828Z,15.30
2023-01-21T05:53:11.573Z,13.70
2023-01-21T05:55:40.718Z,13.90
2023-01-21T05:58:09.640Z,15.10
2023-01-21T06:00:38.253Z,14.40
2023-01-21T06:03:11.240Z,64.20
2023-01-21T06:05:39.826Z,23.70
2023-01-21T06:08:09.738Z,17.60
2023-01-21T06:10:38.608Z,16.70
2023-01-21T06:13:07.210Z,48.90
2023-01-21T06:15:38.187Z,14.20
2023-01-21T06:18:07.128Z,17.30
2023-01-21T06:20:36.340Z,34.70
2023-01-21T06:23:05.385Z,25.90
2023-01-21T06:25:34.704Z,27.10
2023-01-21T06:28:03.229Z,33.00
2023-01-21T06:30:32.217Z,17.90
2023-01-21T06:33:01.077Z,24.80
2023-01-21T06:35:29.899Z,22.40
2023-01-21T06:37:58.786Z,18.80
2023-01-21T06:40:28.678Z,20.70
2023-01-21T06:42:57.592Z,20.70
2023-01-21T06:45:26.287Z,13.60
2023-01-21T06:47:54.761Z,24.90
2023-01-21T06:50:23.753Z,12.80
2023-01-21T06:52:52.648Z,12.70
2023-01-21T06:55:21.022Z,12.50
2023-01-21T06:57:52.062Z,12.00
2023-01-21T07:00:21.713Z,13.00
2023-01-21T07:02:50.181Z,13.30
2023-01-21T07:05:21.217Z,15.90
2023-01-21T07:07:50.094Z,41.40
2023-01-21T07:10:18.651Z,17.60
2023-01-21T07:12:47.882Z,13.30
2023-01-21T07:15:17.164Z,12.40
2023-01-21T07:17:46.034Z,11.40
2023-01-21T07:20:14.958Z,10.80
2023-01-21T07:22:43.953Z,12.60
2023-01-21T07:25:12.742Z,102.50
2023-01-21T07:27:42.145Z,20.30
2023-01-21T07:30:21.413Z,65.40
2023-01-21T07:32:50.382Z,99.20
2023-01-21T07:35:19.180Z,64.50
2023-01-21T07:37:47.852Z,13.50
2023-01-21T07:40:16.762Z,16.10
2023-01-21T07:42:52.359Z,13.40
2023-01-21T07:45:22.420Z,9.60
2023-01-21T07:47:51.299Z,9.80
2023-01-21T07:50:20.102Z,8.70
2023-01-21T07:52:48.989Z,10.50
2023-01-21T07:55:18.015Z,11.10
2023-01-21T07:57:46.667Z,10.00
2023-01-21T08:00:16.007Z,7.60
2023-01-21T08:02:45.139Z,8.70
2023-01-21T08:05:14.185Z,9.00
2023-01-21T08:07:42.745Z,9.10
2023-01-21T08:10:11.681Z,8.20
2023-01-21T08:12:43.991Z,9.00
2023-01-21T08:15:12.695Z,9.30
2023-01-21T08:17:47.138Z,10.30
2023-01-21T08:20:20.241Z,8.70
2023-01-21T08:22:48.770Z,10.00
2023-01-21T08:25:17.501Z,8.60
2023-01-21T08:27:48.538Z,10.00
2023-01-21T08:30:18.332Z,8.20
2023-01-21T08:32:47.173Z,11.00
2023-01-21T08:35:16.240Z,10.80
2023-01-21T08:37:45.322Z,9.30
2023-01-21T08:40:14.829Z,12.10
2023-01-21T08:42:43.407Z,11.60
2023-01-21T08:45:15.178Z,9.20
2023-01-21T08:47:44.263Z,7.90
2023-01-21T08:50:13.153Z,9.50
2023-01-21T08:52:41.945Z,8.90
2023-01-21T08:55:11.204Z,9.70
2023-01-21T08:57:40.038Z,8.20
2023-01-21T09:00:10.230Z,7.30
2023-01-21T09:02:39.148Z,6.90
2023-01-21T09:05:09.064Z,7.00
2023-01-21T09:07:38.162Z,6.80
2023-01-21T09:10:07.796Z,8.30
2023-01-21T09:12:38.644Z,7.30
2023-01-21T09:15:07.703Z,9.20
2023-01-21T09:17:36.276Z,6.70
2023-01-21T09:20:05.770Z,6.40
2023-01-21T09:22:34.177Z,7.40
2023-01-21T09:25:10.657Z,6.50
2023-01-21T09:27:39.743Z,7.20
2023-01-21T09:30:09.141Z,7.80
2023-01-21T09:32:37.935Z,8.30
2023-01-21T09:35:07.446Z,6.90
2023-01-21T09:37:37.459Z,8.10
2023-01-21T09:40:06.962Z,8.90
2023-01-21T09:42:35.773Z,8.40
2023-01-21T09:45:05.078Z,8.30
2023-01-21T09:47:40.691Z,7.90
2023-01-21T09:50:17.096Z,10.90
2023-01-21T09:52:49.094Z,14.70
2023-01-21T09:55:35.780Z,11.60
2023-01-21T09:58:19.380Z,7.70
2023-01-21T10:01:22.213Z,11.20
2023-01-21T10:04:01.530Z,8.50
2023-01-21T10:06:45.756Z,7.20
2023-01-21T10:09:14.445Z,6.20
2023-01-21T10:12:00.344Z,7.70
2023-01-21T10:15:13.370Z,6.30
2023-01-21T10:17:50.753Z,8.10
2023-01-21T10:20:37.264Z,7.00
2023-01-21T10:23:32.058Z,7.60
2023-01-21T10:26:08.195Z,7.10
2023-01-21T10:28:40.906Z,7.60
2023-01-21T10:31:24.703Z,7.70
2023-01-21T10:33:54.252Z,5.90
2023-01-21T10:36:47.306Z,6.00
2023-01-21T10:39:51.629Z,8.00
2023-01-21T10:42:51.266Z,5.80
2023-01-21T10:45:33.651Z,9.70
2023-01-21T10:48:16.368Z,6.30
2023-01-21T10:51:12.103Z,6.70
2023-01-21T10:54:01.357Z,5.50
2023-01-21T10:56:37.107Z,6.40
2023-01-21T10:59:19.381Z,6.20
2023-01-21T11:01:54.248Z,6.70
2023-01-21T11:04:24.768Z,7.80
2023-01-21T11:07:03.534Z,6.20
2023-01-21T11:09:37.816Z,8.50
2023-01-21T11:12:10.141Z,8.40
2023-01-21T11:14:38.683Z,7.70
2023-01-21T11:17:07.772Z,11.80
2023-01-21T11:19:36.766Z,15.60
2023-01-21T11:22:14.477Z,9.50
2023-01-21T11:24:51.963Z,7.80
2023-01-21T11:27:34.878Z,6.70
2023-01-21T11:30:20.890Z,8.60
2023-01-21T11:32:54.893Z,6.40
2023-01-21T11:35:26.566Z,6.20
2023-01-21T11:37:55.025Z,7.80
2023-01-21T11:40:26.016Z,9.20
2023-01-21T11:42:56.694Z,7.90
2023-01-21T11:45:37.059Z,13.40
2023-01-21T11:48:21.368Z,6.70
2023-01-21T11:50:50.346Z,7.40
2023-01-21T11:53:19.986Z,6.80
2023-01-21T11:55:55.295Z,5.10
2023-01-21T11:58:34.147Z,7.00
2023-01-21T12:01:21.172Z,9.70
2023-01-21T12:03:54.199Z,12.10
2023-01-21T12:06:29.159Z,19.40
2023-01-21T12:09:03.217Z,11.80
2023-01-21T12:11:37.580Z,10.30
2023-01-21T12:14:36.552Z,10.10
2023-01-21T12:17:23.139Z,7.70
2023-01-21T12:19:57.674Z,9.20
2023-01-21T12:22:27.089Z,13.00
2023-01-21T12:25:18.001Z,8.90
2023-01-21T12:27:46.894Z,5.00
2023-01-21T12:30:52.046Z,7.20
2023-01-21T12:33:47.543Z,6.50
2023-01-21T12:36:26.178Z,8.10
2023-01-21T12:39:22.387Z,8.60
2023-01-21T12:42:19.144Z,11.90
2023-01-21T12:45:05.250Z,8.00
2023-01-21T12:47:50.721Z,8.70
2023-01-21T12:50:31.436Z,17.50
2023-01-21T12:53:12.171Z,31.90
2023-01-21T12:55:51.084Z,12.20
2023-01-21T12:58:22.804Z,7.70
2023-01-21T13:00:53.990Z,7.50
2023-01-21T13:03:55.137Z,6.50
2023-01-21T13:06:53.096Z,8.00
2023-01-21T13:09:39.116Z,8.70
2023-01-21T13:12:21.080Z,6.10
2023-01-21T13:15:04.331Z,17.30
2023-01-21T13:17:38.475Z,12.10
2023-01-21T13:20:18.558Z,8.90
2023-01-21T13:23:05.718Z,10.10
2023-01-21T13:25:45.654Z,13.00
2023-01-21T13:28:26.622Z,23.00
2023-01-21T13:31:46.522Z,16.70
2023-01-21T13:34:31.401Z,15.00
2023-01-21T13:37:18.417Z,10.80
2023-01-21T13:39:55.503Z,17.20
2023-01-21T13:42:24.197Z,12.30
2023-01-21T13:45:21.818Z,9.10
2023-01-21T13:47:53.829Z,16.40
2023-01-21T13:50:44.680Z,8.40
2023-01-21T13:53:25.602Z,9.20
2023-01-21T13:56:12.312Z,9.80
2023-01-21T13:58:48.003Z,7.70
2023-01-21T14:01:22.560Z,12.30
2023-01-21T14:03:55.984Z,13.20
2023-01-21T14:06:41.008Z,9.60
2023-01-21T14:09:24.794Z,7.20
2023-01-21T14:12:13.795Z,9.00
2023-01-21T14:15:05.901Z,16.80
2023-01-21T14:20:45.120Z,12.90
2023-01-21T14:23:22.957Z,12.80
2023-01-21T14:26:00.547Z,17.80
2023-01-21T14:28:48.313Z,33.90
2023-01-21T14:31:33.861Z,35.70
2023-01-21T14:34:24.063Z,28.20
2023-01-21T14:37:14.287Z,25.10
2023-01-21T14:39:59.116Z,46.90
2023-01-21T14:42:42.419Z,36.50
2023-01-21T14:45:13.610Z,73.50
2023-01-21T14:47:45.990Z,110.90
2023-01-21T14:50:52.019Z,128.40
2023-01-21T14:53:25.313Z,105.10
2023-01-21T14:56:16.231Z,61.50
2023-01-21T14:58:51.769Z,20.90
2023-01-21T15:01:47.791Z,28.70
2023-01-21T15:04:28.190Z,31.40
2023-01-21T15:07:57.478Z,16.20
2023-01-21T15:11:30.742Z,18.80
2023-01-21T15:14:11.654Z,18.10
2023-01-21T15:16:42.727Z,17.10
2023-01-21T15:19:12.812Z,31.10
2023-01-21T15:21:42.567Z,24.40
2023-01-21T15:24:36.947Z,18.10
2023-01-21T15:27:20.496Z,24.30
2023-01-21T15:29:54.952Z,15.40
2023-01-21T15:32:40.663Z,14.80
2023-01-21T15:35:39.491Z,11.40
2023-01-21T15:38:14.148Z,9.40
2023-01-21T15:40:48.606Z,13.20
2023-01-21T15:43:30.305Z,15.20
2023-01-21T15:46:19.629Z,12.40
2023-01-21T15:49:10.369Z,12.00
2023-01-21T15:51:48.085Z,9.50
2023-01-21T15:54:20.704Z,10.80
2023-01-21T15:57:26.983Z,14.80
2023-01-21T16:00:05.208Z,17.00
2023-01-21T16:03:04.895Z,21.50
2023-01-21T16:06:06.404Z,17.50
2023-01-21T16:09:07.763Z,16.30
2023-01-21T16:11:59.667Z,16.10
2023-01-21T16:14:52.671Z,14.20
2023-01-21T16:17:39.969Z,18.60
2023-01-21T16:20:12.778Z,16.80
2023-01-21T16:22:46.423Z,21.60
2023-01-21T16:25:23.808Z,21.30
2023-01-21T16:28:00.333Z,18.90
2023-01-21T16:30:31.994Z,17.80
2023-01-21T16:33:17.038Z,15.60
2023-01-21T16:35:50.459Z,16.70
2023-01-21T16:38:28.342Z,13.20
2023-01-21T16:41:15.868Z,14.00
2023-01-21T16:43:48.241Z,14.70
2023-01-21T16:46:35.198Z,16.70
2023-01-21T16:49:12.138Z,20.40
2023-01-21T16:51:54.252Z,20.50
2023-01-21T16:54:28.747Z,19.70
2023-01-21T16:57:32.033Z,22.40
2023-01-21T17:00:02.906Z,21.60
2023-01-21T17:02:37.331Z,19.50
2023-01-21T17:05:06.744Z,18.60
2023-01-21T17:07:44.203Z,15.80
2023-01-21T17:10:21.419Z,13.00
2023-01-21T17:12:55.389Z,13.00
2023-01-21T17:15:27.059Z,13.40
2023-01-21T17:17:59.073Z,12.10
2023-01-21T17:20:46.049Z,14.70
2023-01-21T17:23:28.471Z,16.80
2023-01-21T17:26:06.087Z,13.40
2023-01-21T17:28:53.991Z,14.00
2023-01-21T17:31:31.256Z,22.90
2023-01-21T17:34:15.367Z,18.00
2023-01-21T17:36:47.216Z,14.60
2023-01-21T17:39:51.008Z,13.90
2023-01-21T17:42:26.019Z,13.50
2023-01-21T17:45:01.181Z,14.00
2023-01-21T17:47:46.813Z,19.50
2023-01-21T17:50:26.517Z,12.90
2023-01-21T17:53:29.151Z,12.40
2023-01-21T17:56:06.786Z,16.10
2023-01-21T17:58:46.283Z,10.90
2023-01-21T18:01:19.030Z,11.10
2023-01-21T18:03:48.307Z,15.30
2023-01-21T18:06:28.977Z,21.90
2023-01-21T18:08:58.070Z,35.70
2023-01-21T18:11:27.784Z,35.80
2023-01-21T18:13:56.400Z,38.30
2023-01-21T18:17:25.163Z,55.80
2023-01-21T18:19:54.067Z,21.30
2023-01-21T18:22:24.483Z,10.40
2023-01-21T18:24:56.931Z,17.80
2023-01-21T18:27:27.075Z,14.80
2023-01-21T18:29:58.302Z,9.90
2023-01-21T18:32:26.806Z,13.50
2023-01-21T18:34:55.594Z,14.10
2023-01-21T18:37:25.828Z,13.90
2023-01-21T18:39:54.711Z,7.50
2023-01-21T18:42:23.906Z,11.40
2023-01-21T18:44:52.470Z,16.00
2023-01-21T18:47:22.803Z,12.70
2023-01-21T18:49:51.506Z,15.50
2023-01-21T18:52:21.729Z,11.30
2023-01-21T18:54:50.417Z,15.10
2023-01-21T18:57:22.771Z,12.40
2023-01-21T18:59:51.681Z,16.10
2023-01-21T19:02:20.971Z,13.10
2023-01-21T19:04:54.888Z,17.20
2023-01-21T19:07:24.395Z,17.10
2023-01-21T19:09:53.092Z,17.40
2023-01-21T19:12:23.503Z,11.80
2023-01-21T19:14:53.420Z,16.50
2023-01-21T19:17:32.870Z,13.90
2023-01-21T19:20:02.382Z,13.00
2023-01-21T19:22:34.132Z,10.80
2023-01-21T19:27:35.918Z,11.80
2023-01-21T19:30:25.877Z,16.70
2023-01-21T19:32:56.093Z,11.40
2023-01-21T19:35:37.122Z,12.10
2023-01-21T19:38:32.494Z,18.00
2023-01-21T19:41:01.525Z,12.80
2023-01-21T19:43:30.490Z,11.50
2023-01-21T19:46:00.113Z,11.50
2023-01-21T19:48:29.698Z,14.50
2023-01-21T19:50:58.712Z,9.90
2023-01-21T19:53:27.389Z,17.80
2023-01-21T19:55:57.097Z,11.10
2023-01-21T19:58:28.943Z,13.70
2023-01-21T20:00:57.874Z,12.80
2023-01-21T20:03:29.572Z,14.00
2023-01-21T20:06:04.952Z,8.50
2023-01-21T20:08:34.870Z,11.90
2023-01-21T20:11:03.762Z,11.60
2023-01-21T20:13:37.072Z,16.30
2023-01-21T20:16:23.855Z,13.50
2023-01-21T20:18:55.043Z,10.00
2023-01-21T20:21:24.928Z,10.30
2023-01-21T20:23:53.815Z,10.50
2023-01-21T20:26:27.929Z,16.00
2023-01-21T20:28:58.148Z,11.80
2023-01-21T20:31:29.728Z,11.10
2023-01-21T20:34:05.490Z,12.10
2023-01-21T20:36:34.144Z,12.70
2023-01-21T20:39:03.038Z,11.90
2023-01-21T20:41:32.030Z,15.60
2023-01-21T20:44:03.792Z,13.70
2023-01-21T20:49:02.713Z,10.60
2023-01-21T20:51:31.281Z,11.90
2023-01-21T20:54:00.184Z,16.70
2023-01-21T20:56:31.554Z,17.40
2023-01-21T20:59:00.516Z,14.10
2023-01-21T21:01:31.389Z,12.10
2023-01-21T21:03:59.833Z,15.30
2023-01-21T21:06:29.620Z,12.70
2023-01-21T21:08:58.662Z,17.80
2023-01-21T21:11:27.234Z,13.70
2023-01-21T21:13:56.628Z,10.70
2023-01-21T21:16:30.083Z,10.90
2023-01-21T21:18:59.814Z,12.50
2023-01-21T21:21:28.727Z,15.90
2023-01-21T21:23:57.107Z,13.20
2023-01-21T21:26:29.624Z,16.10
2023-01-21T21:29:00.733Z,12.90
2023-01-21T21:32:29.132Z,14.20
2023-01-21T21:35:44.712Z,12.30
2023-01-21T21:39:13.397Z,14.10
2023-01-21T21:42:40.556Z,13.70
2023-01-21T21:46:08.975Z,12.40
2023-01-21T21:48:38.445Z,10.10
2023-01-21T21:51:12.085Z,10.70
2023-01-21T21:53:43.828Z,13.50
2023-01-21T21:56:18.926Z,9.10
2023-01-21T21:58:48.545Z,16.70
2023-01-21T22:01:23.936Z,12.20
2023-01-21T22:03:53.197Z,13.60
2023-01-21T22:06:23.829Z,11.20
2023-01-21T22:08:54.659Z,10.20
2023-01-21T22:11:24.376Z,9.30
2023-01-21T22:13:54.060Z,14.80
2023-01-21T22:16:26.354Z,14.60
2023-01-21T22:18:57.463Z,9.00
2023-01-21T22:21:34.902Z,14.30
2023-01-21T22:24:06.922Z,13.20
2023-01-21T22:26:36.268Z,10.90
2023-01-21T22:29:05.973Z,10.30
2023-01-21T22:31:35.053Z,11.70
2023-01-21T22:34:04.158Z,13.90
2023-01-21T22:36:33.053Z,13.00
2023-01-21T22:39:01.657Z,10.30
2023-01-21T22:41:31.043Z,15.80
2023-01-21T22:43:59.731Z,10.00
2023-01-21T22:46:34.146Z,13.40
2023-01-21T22:49:03.980Z,11.60
2023-01-21T22:51:32.705Z,12.50
2023-01-21T22:54:02.564Z,17.70
2023-01-21T22:56:50.492Z,9.20
2023-01-21T22:59:20.116Z,12.20
2023-01-21T23:01:53.413Z,13.40
2023-01-21T23:04:22.100Z,14.80
2023-01-21T23:06:55.131Z,12.30
2023-01-21T23:09:24.286Z,17.20
2023-01-21T23:11:53.075Z,12.60
2023-01-21T23:14:21.856Z,10.70
2023-01-21T23:16:53.307Z,10.30
2023-01-21T23:19:22.102Z,13.40
2023-01-21T23:21:50.896Z,16.40
2023-01-21T23:24:19.881Z,14.20
2023-01-21T23:26:48.468Z,10.90
2023-01-21T23:29:17.358Z,11.80
2023-01-21T23:31:46.491Z,10.70
2023-01-21T23:34:15.653Z,16.40
2023-01-21T23:36:44.452Z,12.50
2023-01-21T23:39:13.536Z,11.70
2023-01-21T23:41:42.122Z,14.00
2023-01-21T23:44:11.111Z,16.00
2023-01-21T23:46:40.113Z,15.20
2023-01-21T23:49:08.703Z,13.50
2023-01-21T23:51:37.481Z,13.50
2023-01-21T23:54:06.684Z,11.00
2023-01-21T23:56:35.265Z,11.80
2023-01-21T23:59:04.055Z,12.10
